Time;durP1;ratioP1;P1;durP2;ratioP2;P2;SDS_P1;SDS_P2;PMS_P1;PMS_P2;Temp;Humidity;BMP_temperature;BMP_pressure;BME280_temperature;BME280_humidity;BME280_pressure;Samples;Min_cycle;Max_cycle;Signal;HPM_P1;HPM_P2
2021/11/21 00:02:22;;;;;;;2.40;1.40;;;19.70;91.30;;;;;;5056446;28;20032;-53
2021/11/21 00:04:50;;;;;;;4.65;1.40;;;19.70;91.30;;;;;;5074238;28;20012;-51
2021/11/21 00:07:17;;;;;;;5.28;1.50;;;19.70;91.30;;;;;;5072570;28;20123;-57
2021/11/21 00:09:45;;;;;;;7.07;1.88;;;19.60;91.30;;;;;;5073868;28;20020;-53
2021/11/21 00:12:12;;;;;;;5.25;1.48;;;19.60;91.40;;;;;;5073362;28;20040;-55
2021/11/21 00:14:40;;;;;;;3.55;1.30;;;19.60;91.50;;;;;;5073243;28;20104;-52
2021/11/21 00:17:08;;;;;;;5.55;1.58;;;19.60;91.50;;;;;;5073491;28;20108;-52
2021/11/21 00:19:41;;;;;;;6.93;1.80;;;19.60;91.50;;;;;;5073131;28;20108;-55
2021/11/21 00:22:15;;;;;;;6.88;2.28;;;19.50;91.50;;;;;;5072981;28;20119;-59
2021/11/21 00:24:44;;;;;;;4.65;2.20;;;19.50;91.60;;;;;;5072807;28;20024;-54
2021/11/21 00:27:11;;;;;;;4.65;1.83;;;19.60;91.60;;;;;;5072741;28;20024;-55
2021/11/21 00:29:39;;;;;;;7.50;2.97;;;19.50;91.60;;;;;;5072772;28;20040;-58
2021/11/21 00:32:07;;;;;;;6.85;1.95;;;19.50;91.70;;;;;;5072698;28;20024;-58
2021/11/21 00:34:35;;;;;;;6.25;2.15;;;19.40;92.20;;;;;;5072960;28;20510;-59
2021/11/21 00:37:02;;;;;;;6.80;2.45;;;19.40;91.90;;;;;;5069470;28;20029;-52
2021/11/21 00:39:30;;;;;;;4.80;2.20;;;19.40;91.90;;;;;;5066266;28;20063;-53
2021/11/21 00:41:57;;;;;;;4.90;2.20;;;19.40;91.90;;;;;;5069741;28;20493;-53
2021/11/21 00:44:24;;;;;;;4.68;2.22;;;19.50;91.90;;;;;;5069014;28;20036;-55
2021/11/21 00:46:52;;;;;;;8.15;2.80;;;19.50;91.90;;;;;;5069242;28;20033;-52
2021/11/21 00:49:20;;;;;;;5.70;2.72;;;19.40;91.90;;;;;;5066366;28;20028;-56
2021/11/21 00:51:49;;;;;;;6.97;2.75;;;19.40;92.00;;;;;;5069832;28;20479;-52
2021/11/21 00:57:01;;;;;;;7.13;2.58;;;19.50;92.10;;;;;;5065439;28;20035;-59
2021/11/21 00:59:29;;;;;;;7.95;2.75;;;19.50;92.10;;;;;;5069086;28;20032;-49
2021/11/21 01:01:57;;;;;;;6.90;2.58;;;19.50;92.00;;;;;;5069354;28;20033;-53
2021/11/21 01:04:25;;;;;;;5.72;2.70;;;19.50;92.00;;;;;;5069580;28;20017;-55
2021/11/21 01:06:52;;;;;;;5.45;2.42;;;19.50;92.20;;;;;;5066942;28;20032;-50
2021/11/21 01:09:23;;;;;;;5.68;2.50;;;19.60;92.00;;;;;;5068935;28;20025;-51
2021/11/21 01:11:51;;;;;;;7.17;2.47;;;19.60;92.00;;;;;;5065785;28;20024;-55
2021/11/21 01:14:18;;;;;;;11.00;3.00;;;19.60;92.00;;;;;;5067446;28;20383;-51
2021/11/21 01:16:46;;;;;;;7.97;2.67;;;19.60;91.90;;;;;;5065469;28;20017;-51
2021/11/21 01:19:13;;;;;;;4.38;2.10;;;19.60;91.90;;;;;;5070121;28;20496;-56
2021/11/21 01:21:41;;;;;;;7.93;3.05;;;19.60;91.80;;;;;;5069770;28;20044;-53
2021/11/21 01:24:08;;;;;;;6.60;2.42;;;19.60;91.90;;;;;;5067943;28;20029;-55
2021/11/21 01:26:36;;;;;;;5.13;2.17;;;19.60;91.80;;;;;;5065394;28;20048;-57
2021/11/21 01:29:03;;;;;;;4.85;2.28;;;19.70;91.80;;;;;;5069362;28;20100;-51
2021/11/21 01:31:31;;;;;;;7.63;2.60;;;19.60;91.90;;;;;;5069166;28;20150;-55
2021/11/21 01:33:58;;;;;;;3.60;1.90;;;19.70;91.90;;;;;;5068045;28;20495;-54
2021/11/21 01:36:26;;;;;;;4.82;2.00;;;19.60;91.90;;;;;;5062303;28;20032;-52
2021/11/21 01:38:54;;;;;;;5.25;2.08;;;19.60;91.90;;;;;;5069754;28;20135;-52
2021/11/21 01:41:22;;;;;;;4.13;1.85;;;19.70;91.90;;;;;;5068756;28;20041;-52
2021/11/21 01:43:49;;;;;;;5.30;2.20;;;19.60;91.90;;;;;;5069957;28;20831;-55
2021/11/21 01:46:17;;;;;;;5.78;2.10;;;19.60;91.90;;;;;;5066824;28;20036;-54
2021/11/21 01:48:45;;;;;;;5.43;2.05;;;19.60;91.90;;;;;;5069610;28;20426;-54
2021/11/21 01:51:13;;;;;;;8.13;2.55;;;19.60;91.90;;;;;;5070110;28;20032;-59
2021/11/21 01:53:40;;;;;;;5.55;1.60;;;19.60;91.90;;;;;;5071633;28;20130;-56
2021/11/21 01:56:07;;;;;;;5.95;1.60;;;19.60;91.90;;;;;;5071881;28;20413;-57
2021/11/21 01:58:35;;;;;;;5.30;2.75;;;19.60;91.90;;;;;;5071977;28;20047;-55
2021/11/21 02:01:03;;;;;;;6.93;1.52;;;19.60;91.90;;;;;;5071829;28;20048;-54
2021/11/21 02:03:30;;;;;;;4.95;1.73;;;19.60;91.90;;;;;;5072292;28;20083;-57
2021/11/21 02:05:59;;;;;;;5.60;1.60;;;19.50;92.00;;;;;;5071848;28;20030;-59
2021/11/21 02:08:27;;;;;;;5.28;1.75;;;19.50;92.00;;;;;;5071784;28;20048;-57
2021/11/21 02:10:59;;;;;;;4.85;1.65;;;19.50;92.10;;;;;;5071502;28;20028;-55
2021/11/21 02:13:27;;;;;;;4.85;1.40;;;19.50;92.10;;;;;;5071006;28;20048;-56
2021/11/21 02:15:54;;;;;;;4.68;1.50;;;19.40;92.10;;;;;;5071249;28;20037;-57
2021/11/21 02:18:23;;;;;;;5.82;1.80;;;19.40;92.20;;;;;;5070424;28;20029;-55
2021/11/21 02:20:53;;;;;;;5.75;2.33;;;19.40;92.20;;;;;;5071557;28;20105;-55
2021/11/21 02:23:24;;;;;;;5.28;1.65;;;19.40;92.30;;;;;;5069667;28;20526;-51
2021/11/21 02:25:52;;;;;;;8.75;2.38;;;19.40;92.30;;;;;;5069898;28;20059;-57
2021/11/21 02:28:20;;;;;;;12.65;6.35;;;19.30;92.60;;;;;;5071063;28;20535;-52
2021/11/21 02:30:47;;;;;;;13.85;5.70;;;18.20;96.10;;;;;;5070735;28;20432;-56
2021/11/21 02:33:18;;;;;;;12.38;6.57;;;17.90;96.50;;;;;;5071247;28;20036;-57
2021/11/21 02:35:48;;;;;;;17.00;5.43;;;17.60;97.30;;;;;;5070929;28;20044;-61
2021/11/21 02:38:18;;;;;;;12.23;5.55;;;17.20;98.30;;;;;;5074583;28;20356;-60
2021/11/21 02:40:47;;;;;;;9.70;3.38;;;17.50;98.30;;;;;;5074799;28;20025;-60
2021/11/21 02:43:17;;;;;;;14.23;4.20;;;17.50;97.30;;;;;;5074751;28;20021;-58
2021/11/21 02:45:48;;;;;;;9.90;4.18;;;17.50;97.90;;;;;;5074763;28;20487;-55
2021/11/21 02:48:21;;;;;;;13.52;3.40;;;17.40;98.40;;;;;;5074738;28;20033;-61
2021/11/21 02:50:49;;;;;;;14.35;2.47;;;17.30;98.50;;;;;;5075325;28;20044;-57
2021/11/21 02:53:18;;;;;;;15.80;4.38;;;17.40;97.90;;;;;;5074729;28;20356;-61
2021/11/21 02:55:45;;;;;;;9.63;3.15;;;17.40;98.20;;;;;;5074393;28;20581;-63
2021/11/21 02:58:13;;;;;;;10.75;2.88;;;17.00;98.60;;;;;;5074584;28;20029;-57
2021/11/21 03:00:41;;;;;;;7.97;2.25;;;17.30;99.20;;;;;;5074088;28;20178;-58
2021/11/21 03:03:09;;;;;;;9.52;2.35;;;17.20;98.50;;;;;;5074328;28;20052;-60
2021/11/21 03:05:37;;;;;;;10.68;2.85;;;17.20;99.20;;;;;;5074342;28;20056;-56
2021/11/21 03:08:04;;;;;;;9.27;3.70;;;17.50;98.60;;;;;;5074079;28;20154;-55
2021/11/21 03:10:33;;;;;;;16.63;3.00;;;17.60;99.80;;;;;;5074227;28;20024;-61
2021/11/21 03:13:04;;;;;;;13.98;3.55;;;17.40;99.10;;;;;;5073861;28;20052;-55
2021/11/21 03:15:32;;;;;;;14.25;3.75;;;17.30;99.60;;;;;;5074217;28;20036;-58
2021/11/21 03:18:00;;;;;;;7.47;2.40;;;17.60;99.90;;;;;;5056040;28;20091;-59
2021/11/21 03:20:30;;;;;;;13.15;3.10;;;17.60;98.90;;;;;;5074185;28;20383;-58
2021/11/21 03:22:59;;;;;;;10.25;1.90;;;17.80;99.40;;;;;;5072396;28;20161;-57
2021/11/21 03:25:27;;;;;;;15.10;2.72;;;17.40;99.10;;;;;;5072584;28;20479;-59
2021/11/21 03:27:54;;;;;;;12.68;1.88;;;18.00;98.80;;;;;;5073810;28;20039;-58
2021/11/21 03:30:23;;;;;;;13.20;2.20;;;17.60;98.80;;;;;;5073549;28;20059;-56
2021/11/21 03:32:52;;;;;;;13.98;2.40;;;17.70;99.90;;;;;;5074040;28;20035;-62
2021/11/21 03:35:21;;;;;;;8.82;1.55;;;17.70;99.00;;;;;;5074259;28;20028;-59
2021/11/21 03:37:49;;;;;;;17.70;2.50;;;17.90;99.50;;;;;;5072419;28;20023;-53
2021/11/21 03:40:18;;;;;;;9.18;2.28;;;18.20;99.90;;;;;;5073489;28;20039;-52
2021/11/21 03:42:47;;;;;;;11.75;2.63;;;18.60;99.90;;;;;;5073404;28;20041;-55
2021/11/21 03:45:16;;;;;;;22.15;3.78;;;19.00;99.00;;;;;;5073400;28;20017;-53
2021/11/21 03:47:44;;;;;;;6.32;2.00;;;19.10;98.10;;;;;;5073883;28;20526;-57
2021/11/21 03:50:12;;;;;;;10.43;2.22;;;19.20;97.50;;;;;;5073114;28;20032;-55
2021/11/21 03:52:44;;;;;;;9.30;3.17;;;19.20;97.20;;;;;;5073451;28;20033;-55
2021/11/21 03:55:15;;;;;;;5.55;2.08;;;19.20;96.80;;;;;;5073072;28;20535;-53
2021/11/21 03:57:43;;;;;;;10.95;2.83;;;19.30;96.60;;;;;;5073775;28;20037;-54
2021/11/21 04:00:15;;;;;;;9.75;2.10;;;19.30;96.50;;;;;;5072509;28;20040;-52
2021/11/21 04:02:46;;;;;;;6.60;1.67;;;19.20;96.40;;;;;;5073657;28;20083;-50
2021/11/21 04:05:16;;;;;;;8.02;1.88;;;19.30;96.70;;;;;;5073733;28;20016;-54
2021/11/21 04:07:44;;;;;;;5.68;1.48;;;19.30;96.70;;;;;;5073144;28;20082;-54
2021/11/21 04:10:12;;;;;;;13.38;1.52;;;19.30;96.40;;;;;;5073025;28;20093;-53
2021/11/21 04:12:40;;;;;;;11.73;1.73;;;19.20;96.60;;;;;;5073161;28;20020;-55
2021/11/21 04:15:08;;;;;;;11.77;3.33;;;19.20;96.40;;;;;;5073073;28;20108;-52
2021/11/21 04:17:36;;;;;;;9.93;2.03;;;19.30;96.70;;;;;;5072862;28;20036;-52
2021/11/21 04:20:05;;;;;;;8.57;1.98;;;19.20;96.30;;;;;;5072921;28;20025;-54
2021/11/21 04:22:33;;;;;;;10.10;2.60;;;19.20;96.70;;;;;;5072872;28;20037;-54
2021/11/21 04:25:00;;;;;;;9.32;2.00;;;19.20;96.70;;;;;;5072905;28;20069;-55
2021/11/21 04:27:28;;;;;;;12.93;2.25;;;19.10;96.50;;;;;;5072836;28;20344;-56
2021/11/21 04:29:58;;;;;;;14.77;2.88;;;19.20;97.30;;;;;;5072667;28;20052;-54
2021/11/21 04:32:26;;;;;;;8.23;2.55;;;19.20;96.80;;;;;;5073013;28;20109;-53
2021/11/21 04:34:53;;;;;;;12.68;1.92;;;19.30;97.10;;;;;;5072634;28;20169;-54
2021/11/21 04:37:21;;;;;;;13.30;2.08;;;19.40;96.90;;;;;;5071219;28;20036;-50
2021/11/21 04:39:49;;;;;;;8.80;2.05;;;19.40;96.90;;;;;;5072340;28;20058;-53
2021/11/21 04:42:17;;;;;;;12.20;2.00;;;19.40;96.60;;;;;;5072485;28;20024;-55
2021/11/21 04:44:44;;;;;;;16.23;1.90;;;19.50;96.80;;;;;;5072340;28;20032;-55
2021/11/21 04:47:12;;;;;;;11.00;2.42;;;19.50;96.80;;;;;;5072301;28;20029;-57
2021/11/21 04:49:39;;;;;;;16.52;2.38;;;19.50;96.80;;;;;;5072821;28;20024;-55
2021/11/21 04:52:07;;;;;;;9.68;2.45;;;19.60;96.60;;;;;;5069161;28;20048;-54
2021/11/21 04:54:35;;;;;;;11.07;2.47;;;19.60;96.30;;;;;;5072691;28;20036;-54
2021/11/21 04:57:05;;;;;;;9.27;1.95;;;19.50;96.40;;;;;;5071893;28;20523;-56
2021/11/21 04:59:32;;;;;;;16.25;3.22;;;19.60;96.40;;;;;;5070666;28;20036;-56
2021/11/21 05:02:00;;;;;;;14.30;2.30;;;19.70;96.50;;;;;;5071629;28;20494;-53
2021/11/21 05:04:28;;;;;;;13.75;2.83;;;19.80;96.60;;;;;;5072219;28;20464;-54
2021/11/21 05:06:55;;;;;;;11.88;1.85;;;19.80;96.50;;;;;;5071894;28;20025;-52
2021/11/21 05:09:23;;;;;;;13.20;2.20;;;19.80;95.90;;;;;;5062312;28;20017;-56
2021/11/21 05:11:50;;;;;;;11.20;2.80;;;19.80;96.10;;;;;;5064653;28;20051;-50
2021/11/21 05:14:20;;;;;;;8.15;1.98;;;19.90;95.90;;;;;;5065241;28;20020;-47
2021/11/21 05:16:48;;;;;;;15.02;3.63;;;19.90;95.60;;;;;;5064986;28;20039;-52
2021/11/21 05:19:15;;;;;;;9.77;2.35;;;19.90;95.50;;;;;;5063173;28;20383;-54
2021/11/21 05:21:43;;;;;;;10.52;2.10;;;19.80;95.40;;;;;;5067036;28;20505;-48
2021/11/21 05:24:10;;;;;;;6.03;1.85;;;19.80;95.40;;;;;;5066461;28;20048;-53
2021/11/21 05:26:38;;;;;;;8.93;2.17;;;19.80;95.40;;;;;;5069744;28;20178;-51
2021/11/21 05:29:05;;;;;;;9.85;2.10;;;19.80;95.30;;;;;;5069524;28;20397;-52
2021/11/21 05:31:32;;;;;;;13.07;1.20;;;19.70;95.30;;;;;;5069263;28;20071;-50
2021/11/21 05:34:00;;;;;;;7.80;2.33;;;19.70;95.20;;;;;;5066030;28;20021;-57
2021/11/21 05:36:27;;;;;;;9.80;2.20;;;19.70;95.10;;;;;;5069618;28;20045;-52
2021/11/21 05:38:54;;;;;;;10.75;2.00;;;19.70;95.10;;;;;;5069428;28;20103;-45
2021/11/21 05:41:22;;;;;;;8.40;1.77;;;19.70;95.00;;;;;;5066642;28;20035;-55
2021/11/21 05:43:49;;;;;;;8.52;2.08;;;19.70;94.90;;;;;;5065526;28;20029;-48
2021/11/21 05:46:17;;;;;;;9.50;2.20;;;19.70;94.90;;;;;;5066637;28;20032;-53
2021/11/21 05:48:44;;;;;;;5.45;1.73;;;19.70;94.80;;;;;;5069013;28;20013;-51
2021/11/21 05:51:12;;;;;;;8.80;1.60;;;19.70;94.70;;;;;;5067928;28;20047;-51
2021/11/21 05:53:39;;;;;;;5.43;1.52;;;19.60;94.60;;;;;;5068158;28;20418;-54
2021/11/21 05:56:07;;;;;;;7.40;2.03;;;19.70;94.60;;;;;;5066399;28;20025;-51
2021/11/21 05:58:34;;;;;;;8.95;2.33;;;19.60;94.50;;;;;;5069070;28;20427;-53
2021/11/21 06:01:02;;;;;;;8.00;1.92;;;19.60;94.50;;;;;;5066728;28;20617;-56
2021/11/21 06:03:30;;;;;;;6.63;1.83;;;19.60;94.50;;;;;;5069059;28;20021;-49
2021/11/21 06:05:57;;;;;;;5.28;1.25;;;19.60;94.50;;;;;;5065569;28;20055;-52
2021/11/21 06:08:25;;;;;;;7.80;2.30;;;19.60;94.40;;;;;;5068890;28;20471;-48
2021/11/21 06:10:52;;;;;;;8.20;2.35;;;19.60;94.40;;;;;;5069046;28;20033;-56
2021/11/21 06:13:21;;;;;;;6.72;1.80;;;19.60;94.40;;;;;;5072343;28;20052;-58
2021/11/21 06:15:49;;;;;;;7.55;2.20;;;19.60;94.30;;;;;;5069199;28;20103;-54
2021/11/21 06:18:17;;;;;;;4.70;1.95;;;19.60;94.30;;;;;;5072880;28;20037;-54
2021/11/21 06:20:45;;;;;;;5.63;1.50;;;19.60;94.20;;;;;;5073126;28;20135;-57
2021/11/21 06:23:12;;;;;;;7.53;1.52;;;19.60;94.20;;;;;;5072520;28;20390;-56
2021/11/21 06:25:42;;;;;;;6.32;1.23;;;19.60;94.10;;;;;;5067571;28;20028;-53
2021/11/21 06:28:11;;;;;;;5.15;1.58;;;19.60;94.10;;;;;;5072678;28;20383;-53
2021/11/21 06:30:39;;;;;;;5.88;1.90;;;19.60;94.00;;;;;;5072181;28;20090;-54
2021/11/21 06:33:07;;;;;;;6.97;1.92;;;19.60;94.10;;;;;;5071843;28;20052;-56
2021/11/21 06:35:36;;;;;;;6.13;1.98;;;19.60;94.00;;;;;;5068872;28;20472;-53
2021/11/21 06:38:04;;;;;;;6.65;1.92;;;19.60;94.00;;;;;;5072773;28;20162;-53
2021/11/21 06:40:32;;;;;;;9.00;2.22;;;19.60;93.90;;;;;;5070464;28;20105;-52
2021/11/21 06:42:59;;;;;;;5.07;1.70;;;19.70;93.90;;;;;;5068267;28;20785;-56
2021/11/21 06:45:26;;;;;;;7.22;1.50;;;19.60;93.80;;;;;;5068911;28;20020;-57
2021/11/21 06:47:54;;;;;;;6.72;1.98;;;19.70;93.80;;;;;;5071939;28;20439;-48
2021/11/21 06:50:22;;;;;;;5.95;1.70;;;19.70;93.70;;;;;;5071671;28;20051;-57
2021/11/21 06:52:49;;;;;;;5.65;1.90;;;19.70;93.70;;;;;;5072479;28;20526;-56
2021/11/21 06:55:17;;;;;;;7.22;1.92;;;19.70;93.70;;;;;;5069807;28;20410;-55
2021/11/21 06:57:45;;;;;;;7.47;1.70;;;19.80;93.70;;;;;;5071631;28;20500;-49
2021/11/21 07:00:15;;;;;;;10.20;2.08;;;19.80;93.60;;;;;;5072327;28;20044;-56
2021/11/21 07:02:44;;;;;;;5.40;1.63;;;19.80;93.50;;;;;;5070874;28;20025;-49
2021/11/21 07:05:11;;;;;;;5.95;2.28;;;19.80;93.40;;;;;;5068376;28;20632;-55
2021/11/21 07:07:40;;;;;;;6.55;1.88;;;19.80;93.40;;;;;;5072252;28;20047;-52
2021/11/21 07:10:08;;;;;;;4.50;1.42;;;19.80;93.40;;;;;;5068292;28;20029;-56
2021/11/21 07:12:36;;;;;;;7.28;1.52;;;19.80;93.60;;;;;;5069595;28;20483;-57
2021/11/21 07:15:04;;;;;;;10.07;2.72;;;19.90;93.30;;;;;;5067671;28;20032;-53
2021/11/21 07:17:31;;;;;;;6.68;2.05;;;19.90;93.20;;;;;;5071787;28;20033;-54
2021/11/21 07:19:58;;;;;;;11.85;2.47;;;19.90;93.20;;;;;;5071609;28;20019;-56
2021/11/21 07:22:26;;;;;;;6.40;1.77;;;19.90;93.20;;;;;;5070566;28;20157;-53
2021/11/21 07:24:53;;;;;;;8.38;1.88;;;19.90;93.20;;;;;;5067429;28;20505;-49
2021/11/21 07:27:21;;;;;;;4.57;1.75;;;19.90;93.10;;;;;;5071478;28;20398;-58
2021/11/21 07:29:49;;;;;;;6.75;2.65;;;19.90;93.10;;;;;;5071729;28;20108;-52
2021/11/21 07:32:17;;;;;;;7.65;2.17;;;19.90;93.10;;;;;;5070908;28;20525;-53
2021/11/21 07:34:44;;;;;;;5.90;1.48;;;19.90;93.00;;;;;;5064172;28;20054;-50
2021/11/21 07:37:12;;;;;;;6.82;1.70;;;19.90;93.00;;;;;;5071254;28;20013;-47
2021/11/21 07:39:39;;;;;;;7.47;2.40;;;19.90;93.00;;;;;;5071049;28;20070;-53
2021/11/21 07:42:07;;;;;;;6.43;1.98;;;19.90;93.00;;;;;;5070871;28;20056;-51
2021/11/21 07:44:34;;;;;;;6.43;2.20;;;19.90;92.90;;;;;;5068638;28;20093;-53
2021/11/21 07:47:02;;;;;;;5.90;2.13;;;19.90;92.90;;;;;;5070292;28;20028;-53
2021/11/21 07:49:29;;;;;;;7.03;1.92;;;19.90;92.80;;;;;;5071086;28;20545;-51
2021/11/21 07:51:57;;;;;;;7.18;1.98;;;19.90;92.80;;;;;;5070613;28;20116;-51
2021/11/21 07:54:24;;;;;;;7.63;1.95;;;19.90;92.80;;;;;;5067972;28;20666;-54
2021/11/21 07:56:52;;;;;;;6.75;2.20;;;20.00;92.80;;;;;;5070804;28;20034;-50
2021/11/21 07:59:19;;;;;;;5.93;2.03;;;20.00;92.80;;;;;;5066203;28;20020;-53
2021/11/21 08:01:48;;;;;;;6.13;1.90;;;19.90;92.70;;;;;;5071263;28;20036;-55
2021/11/21 08:04:15;;;;;;;4.32;1.48;;;20.00;92.60;;;;;;5067506;28;20035;-53
2021/11/21 08:06:43;;;;;;;6.55;1.67;;;19.90;92.60;;;;;;5070634;28;20056;-55
2021/11/21 08:09:12;;;;;;;8.90;2.13;;;20.00;92.60;;;;;;5070540;28;20048;-55
2021/11/21 08:11:40;;;;;;;5.90;1.92;;;20.00;92.50;;;;;;5071127;28;20437;-53
2021/11/21 08:14:07;;;;;;;10.02;2.38;;;20.00;92.50;;;;;;5066496;28;20132;-49
2021/11/21 08:16:35;;;;;;;5.15;2.05;;;20.00;92.50;;;;;;5070946;28;20020;-56
2021/11/21 08:19:02;;;;;;;7.47;2.08;;;19.90;92.50;;;;;;5070713;28;20480;-53
2021/11/21 08:21:30;;;;;;;7.05;2.03;;;20.00;92.50;;;;;;5070381;28;20101;-54
2021/11/21 08:23:57;;;;;;;5.18;1.80;;;20.00;92.40;;;;;;5064731;28;20099;-50
2021/11/21 08:26:25;;;;;;;8.80;1.90;;;20.00;92.40;;;;;;5069398;28;20031;-49
2021/11/21 08:28:52;;;;;;;8.18;2.00;;;20.00;92.40;;;;;;5070808;28;20033;-56
2021/11/21 08:31:20;;;;;;;7.13;1.80;;;20.00;92.40;;;;;;5069832;28;20415;-54
2021/11/21 08:33:49;;;;;;;7.53;2.05;;;20.00;92.40;;;;;;5069200;28;20082;-49
2021/11/21 08:36:16;;;;;;;6.03;1.73;;;20.00;92.30;;;;;;5068464;28;20067;-53
2021/11/21 08:38:44;;;;;;;4.95;2.03;;;19.90;92.30;;;;;;5069579;28;20028;-54
2021/11/21 08:41:11;;;;;;;5.30;1.70;;;19.90;92.30;;;;;;5070271;28;20099;-49
2021/11/21 08:43:38;;;;;;;8.23;2.00;;;20.00;92.30;;;;;;5070383;28;20518;-52
2021/11/21 08:46:06;;;;;;;7.63;2.00;;;19.90;92.20;;;;;;5064707;28;20029;-51
2021/11/21 08:48:34;;;;;;;6.32;2.17;;;20.00;92.20;;;;;;5070122;28;20091;-58
2021/11/21 08:51:02;;;;;;;4.85;2.00;;;20.00;92.20;;;;;;5072936;28;20024;-58
2021/11/21 08:53:30;;;;;;;8.38;2.25;;;19.90;92.20;;;;;;5072769;28;20048;-58
2021/11/21 08:55:57;;;;;;;7.05;1.75;;;20.00;92.20;;;;;;5072597;28;20025;-60
2021/11/21 08:58:25;;;;;;;9.02;2.15;;;19.90;92.10;;;;;;5072783;28;20032;-53
2021/11/21 09:00:52;;;;;;;8.40;2.00;;;19.90;92.10;;;;;;5072469;28;20040;-53
2021/11/21 09:03:20;;;;;;;5.28;1.80;;;19.90;92.10;;;;;;5072725;28;20036;-54
2021/11/21 09:05:47;;;;;;;5.85;2.00;;;19.80;92.10;;;;;;5068822;28;20056;-58
2021/11/21 09:08:16;;;;;;;6.88;2.13;;;19.80;92.10;;;;;;5072692;28;20029;-57
2021/11/21 09:10:44;;;;;;;5.25;1.55;;;19.80;92.10;;;;;;5073171;28;20025;-55
2021/11/21 09:13:12;;;;;;;6.80;1.77;;;19.80;92.10;;;;;;5072739;28;20021;-58
2021/11/21 09:15:40;;;;;;;9.00;2.28;;;19.80;92.10;;;;;;5072300;28;20025;-56
2021/11/21 09:18:07;;;;;;;7.25;2.45;;;19.80;92.10;;;;;;5071108;28;20038;-61
2021/11/21 09:20:35;;;;;;;7.40;1.88;;;19.80;92.20;;;;;;5072344;28;20450;-60
2021/11/21 09:23:04;;;;;;;6.28;2.35;;;19.70;92.10;;;;;;5073220;28;20128;-52
2021/11/21 09:25:31;;;;;;;5.53;1.80;;;19.70;92.10;;;;;;5071944;28;20082;-55
2021/11/21 09:27:59;;;;;;;7.10;2.40;;;19.70;92.10;;;;;;5072429;28;20029;-60
2021/11/21 09:30:27;;;;;;;6.97;1.73;;;19.70;92.10;;;;;;5072235;28;20035;-52
2021/11/21 09:32:54;;;;;;;5.68;2.10;;;19.70;92.10;;;;;;5072530;28;20028;-57
2021/11/21 09:35:23;;;;;;;4.65;2.05;;;19.70;92.10;;;;;;5072213;28;20048;-60
2021/11/21 09:37:51;;;;;;;5.88;2.00;;;19.70;92.10;;;;;;5071284;28;20379;-56
2021/11/21 09:40:18;;;;;;;5.97;1.73;;;19.70;92.40;;;;;;5072192;28;20024;-60
2021/11/21 09:42:46;;;;;;;7.53;2.00;;;19.70;92.10;;;;;;5072538;28;20054;-59
2021/11/21 09:45:15;;;;;;;9.32;2.13;;;19.70;92.10;;;;;;5071897;28;20157;-57
2021/11/21 09:47:50;;;;;;;5.20;2.05;;;19.70;92.10;;;;;;5074912;28;20024;-52
2021/11/21 09:50:19;;;;;;;4.90;1.33;;;19.70;92.10;;;;;;5075832;28;20078;-57
2021/11/21 09:52:54;;;;;;;5.97;2.35;;;19.70;92.10;;;;;;5074956;28;20376;-55
2021/11/21 09:55:22;;;;;;;6.90;2.03;;;19.70;92.10;;;;;;5076761;28;20055;-57
2021/11/21 09:57:50;;;;;;;7.05;2.25;;;19.70;92.20;;;;;;5074867;28;20391;-57
2021/11/21 10:00:20;;;;;;;10.40;2.55;;;19.70;92.10;;;;;;5076222;28;20028;-54
2021/11/21 10:03:06;;;;;;;6.50;1.95;;;19.70;92.20;;;;;;5076224;28;20036;-55
2021/11/21 10:05:37;;;;;;;6.20;1.75;;;19.70;92.10;;;;;;5075595;28;20020;-51
2021/11/21 10:08:13;;;;;;;5.38;1.70;;;19.70;92.10;;;;;;5074288;28;20073;-51
2021/11/21 10:10:40;;;;;;;3.80;1.48;;;19.70;92.10;;;;;;5075447;28;20102;-53
2021/11/21 10:13:39;;;;;;;6.68;2.38;;;19.70;92.20;;;;;;5075545;28;20101;-55
2021/11/21 10:16:36;;;;;;;5.68;2.33;;;19.70;92.10;;;;;;5075252;28;20016;-58
2021/11/21 10:19:05;;;;;;;7.05;1.70;;;19.70;92.10;;;;;;5070413;28;20032;-51
2021/11/21 10:21:36;;;;;;;6.82;1.77;;;19.70;92.20;;;;;;5075622;28;20039;-52
2021/11/21 10:24:25;;;;;;;6.22;1.55;;;19.70;92.10;;;;;;5075508;28;20174;-53
2021/11/21 10:27:16;;;;;;;6.53;1.52;;;19.70;92.10;;;;;;5075587;28;20112;-52
2021/11/21 10:29:47;;;;;;;8.63;2.35;;;19.70;92.10;;;;;;5075573;28;20032;-56
2021/11/21 10:32:21;;;;;;;6.50;1.40;;;19.70;92.10;;;;;;5075060;28;20483;-57
2021/11/21 10:34:57;;;;;;;8.52;2.13;;;19.70;92.20;;;;;;5074813;28;20098;-51
2021/11/21 10:37:37;;;;;;;6.53;1.83;;;19.70;92.20;;;;;;5074937;28;20174;-57
2021/11/21 10:40:10;;;;;;;3.17;1.42;;;19.70;92.20;;;;;;5074864;28;20025;-57
2021/11/21 10:42:40;;;;;;;7.57;1.75;;;19.70;92.20;;;;;;5075289;28;20032;-57
2021/11/21 10:45:08;;;;;;;4.30;1.30;;;19.70;92.30;;;;;;5073624;28;20479;-55
2021/11/21 10:47:53;;;;;;;5.75;1.60;;;19.60;92.30;;;;;;5074924;28;20028;-50
2021/11/21 10:50:32;;;;;;;7.03;1.90;;;19.70;92.30;;;;;;5073713;28;20107;-56
2021/11/21 10:53:05;;;;;;;7.75;1.88;;;19.70;92.30;;;;;;5074796;28;20166;-54
2021/11/21 10:55:32;;;;;;;7.90;1.58;;;19.70;92.40;;;;;;5074945;28;20032;-54
2021/11/21 10:58:10;;;;;;;6.40;2.15;;;19.70;92.40;;;;;;5074381;28;20043;-49
2021/11/21 11:00:38;;;;;;;7.85;2.28;;;19.70;92.40;;;;;;5074993;28;20040;-55
2021/11/21 11:03:19;;;;;;;8.73;1.85;;;19.70;92.40;;;;;;5074177;28;20075;-52
2021/11/21 11:05:46;;;;;;;6.80;1.67;;;19.70;92.40;;;;;;5074894;28;20021;-57
2021/11/21 11:08:26;;;;;;;6.78;2.05;;;19.60;92.40;;;;;;5074458;28;20035;-52
2021/11/21 11:10:53;;;;;;;5.55;1.90;;;19.70;92.50;;;;;;5074756;28;20024;-55
2021/11/21 11:13:23;;;;;;;6.32;1.73;;;19.60;92.60;;;;;;5074837;28;20031;-55
2021/11/21 11:15:50;;;;;;;6.47;1.65;;;19.70;92.60;;;;;;5074800;28;20505;-52
2021/11/21 11:18:20;;;;;;;6.35;2.08;;;19.70;92.60;;;;;;5074244;28;20032;-48
2021/11/21 11:20:54;;;;;;;5.68;1.77;;;19.60;92.60;;;;;;5074167;28;20432;-55
2021/11/21 11:23:21;;;;;;;6.40;2.40;;;19.60;92.60;;;;;;5073953;28;20120;-52
2021/11/21 11:25:53;;;;;;;7.25;2.10;;;19.60;92.60;;;;;;5072835;28;20483;-51
2021/11/21 11:28:27;;;;;;;6.68;1.73;;;19.60;92.70;;;;;;5073686;28;20016;-52
2021/11/21 11:30:58;;;;;;;10.50;2.08;;;19.60;92.90;;;;;;5074486;28;20534;-52
2021/11/21 11:33:36;;;;;;;9.15;2.35;;;19.60;92.90;;;;;;5074229;28;20020;-56
2021/11/21 11:36:18;;;;;;;8.30;1.70;;;19.60;92.90;;;;;;5074283;28;20447;-57
2021/11/21 11:39:07;;;;;;;7.22;1.65;;;19.60;92.90;;;;;;5073257;28;20103;-56
2021/11/21 11:41:35;;;;;;;8.13;1.92;;;19.60;92.90;;;;;;5074152;28;20032;-59
2021/11/21 11:44:06;;;;;;;8.75;2.00;;;19.60;92.90;;;;;;5074009;28;20031;-57
2021/11/21 11:46:40;;;;;;;11.07;2.33;;;19.60;92.90;;;;;;5074358;28;20095;-56
2021/11/21 11:49:13;;;;;;;7.55;2.03;;;19.60;92.80;;;;;;5069856;28;20318;-54
2021/11/21 11:51:40;;;;;;;;;;;19.60;92.80;;;;;;5074801;28;20028;-58
2021/11/21 11:54:18;;;;;;;6.38;2.03;;;19.60;92.70;;;;;;5073533;28;19970;-56
2021/11/21 11:57:08;;;;;;;9.25;2.67;;;19.60;92.70;;;;;;5074008;28;20102;-55
2021/11/21 11:59:47;;;;;;;7.35;1.98;;;19.60;92.70;;;;;;5073739;28;20040;-59
2021/11/21 12:02:32;;;;;;;9.75;2.28;;;19.60;92.70;;;;;;5073661;28;20036;-54
2021/11/21 12:05:06;;;;;;;5.80;1.80;;;19.60;92.70;;;;;;5073851;28;20029;-57
2021/11/21 12:07:37;;;;;;;8.57;2.03;;;19.50;92.70;;;;;;5073683;28;20105;-55
2021/11/21 12:10:24;;;;;;;5.05;1.52;;;19.50;92.70;;;;;;5073120;28;20024;-54
2021/11/21 12:13:01;;;;;;;7.28;1.85;;;19.50;92.70;;;;;;5073608;28;20028;-55
2021/11/21 12:15:35;;;;;;;8.57;1.92;;;19.50;92.70;;;;;;5073833;28;20020;-55
2021/11/21 12:18:04;;;;;;;6.10;1.42;;;19.50;92.70;;;;;;5073473;28;20032;-58
2021/11/21 12:20:42;;;;;;;5.43;1.95;;;19.50;92.70;;;;;;5073246;28;20028;-54
2021/11/21 12:23:09;;;;;;;8.43;2.58;;;19.50;92.60;;;;;;5073420;28;20433;-53
2021/11/21 12:25:37;;;;;;;6.65;1.83;;;19.50;92.70;;;;;;5073420;28;20105;-51
2021/11/21 12:28:06;;;;;;;7.43;2.20;;;19.50;92.70;;;;;;5072784;28;20024;-58
2021/11/21 12:30:40;;;;;;;7.95;1.90;;;19.50;92.70;;;;;;5073454;28;20407;-54
2021/11/21 12:33:27;;;;;;;10.77;1.90;;;19.50;93.00;;;;;;5073312;28;20024;-60
2021/11/21 12:35:55;;;;;;;6.93;1.80;;;19.50;92.70;;;;;;5072308;28;20028;-60
2021/11/21 12:38:23;;;;;;;6.25;2.35;;;19.50;92.70;;;;;;5072949;28;20020;-60
2021/11/21 12:40:57;;;;;;;5.40;1.77;;;19.50;92.70;;;;;;5071893;28;20028;-58
2021/11/21 12:43:26;;;;;;;5.88;1.63;;;19.40;92.60;;;;;;5073166;28;20036;-58
2021/11/21 12:46:05;;;;;;;7.45;2.00;;;19.40;92.60;;;;;;5073021;28;20027;-58
2021/11/21 12:48:32;;;;;;;5.97;2.15;;;19.40;92.60;;;;;;5072940;28;20116;-58
2021/11/21 12:51:05;;;;;;;9.20;3.30;;;19.40;92.60;;;;;;5072911;28;20025;-60
2021/11/21 12:53:37;;;;;;;7.50;1.75;;;19.40;92.60;;;;;;5073020;28;20102;-60
2021/11/21 12:56:07;;;;;;;7.80;2.17;;;19.40;92.60;;;;;;5072706;28;20055;-57
2021/11/21 12:58:42;;;;;;;8.15;2.00;;;19.40;92.60;;;;;;5073183;28;20112;-51
2021/11/21 13:01:17;;;;;;;4.85;1.73;;;19.30;92.60;;;;;;5072888;28;20313;-56